sensor_id;sensor_type;location;lat;lon;timestamp;pressure;altitude;pressure_sealevel;temperature;humidity
7182;BME280;3632;42.724;23.298;2023-12-20T00:00:29;95793.50;;;1.55;100.00
7182;BME280;3632;42.724;23.298;2023-12-20T00:02:56;95797.41;;;1.62;100.00
7182;BME280;3632;42.724;23.298;2023-12-20T00:05:23;95794.47;;;1.51;100.00
7182;BME280;3632;42.724;23.298;2023-12-20T00:07:50;95795.56;;;1.19;100.00
7182;BME280;3632;42.724;23.298;2023-12-20T00:10:17;95795.00;;;1.35;100.00
7182;BME280;3632;42.724;23.298;2023-12-20T00:12:44;95768.88;;;1.16;100.00
7182;BME280;3632;42.724;23.298;2023-12-20T00:15:12;95787.81;;;1.50;100.00
7182;BME280;3632;42.724;23.298;2023-12-20T00:17:39;95781.09;;;1.50;100.00
7182;BME280;3632;42.724;23.298;2023-12-20T00:20:07;95782.22;;;1.42;100.00
7182;BME280;3632;42.724;23.298;2023-12-20T00:22:34;95772.88;;;1.22;100.00
7182;BME280;3632;42.724;23.298;2023-12-20T00:25:00;95751.03;;;0.74;100.00
7182;BME280;3632;42.724;23.298;2023-12-20T00:27:28;95771.72;;;0.81;100.00
7182;BME280;3632;42.724;23.298;2023-12-20T00:29:55;95758.31;;;0.56;100.00
7182;BME280;3632;42.724;23.298;2023-12-20T00:32:23;95676.88;;;-0.12;100.00
7182;BME280;3632;42.724;23.298;2023-12-20T00:34:49;95756.09;;;0.20;100.00
7182;BME280;3632;42.724;23.298;2023-12-20T00:37:16;95701.19;;;-0.15;100.00
7182;BME280;3632;42.724;23.298;2023-12-20T00:39:43;95769.31;;;0.25;100.00
7182;BME280;3632;42.724;23.298;2023-12-20T00:42:10;95765.84;;;0.02;100.00
7182;BME280;3632;42.724;23.298;2023-12-20T00:44:36;95615.47;;;-0.79;100.00
7182;BME280;3632;42.724;23.298;2023-12-20T00:47:03;95749.38;;;-0.07;100.00
7182;BME280;3632;42.724;23.298;2023-12-20T00:49:31;95750.03;;;-0.01;100.00
7182;BME280;3632;42.724;23.298;2023-12-20T00:51:58;95680.63;;;-0.53;100.00
7182;BME280;3632;42.724;23.298;2023-12-20T00:54:25;95765.13;;;-0.02;100.00
7182;BME280;3632;42.724;23.298;2023-12-20T00:56:52;95743.34;;;0.00;100.00
7182;BME280;3632;42.724;23.298;2023-12-20T00:59:19;95617.00;;;-0.75;100.00
7182;BME280;3632;42.724;23.298;2023-12-20T01:01:46;95542.72;;;-1.30;100.00
7182;BME280;3632;42.724;23.298;2023-12-20T01:04:12;95598.81;;;-0.80;100.00
7182;BME280;3632;42.724;23.298;2023-12-20T01:06:40;95405.31;;;-1.90;100.00
7182;BME280;3632;42.724;23.298;2023-12-20T01:09:07;95727.94;;;0.12;100.00
7182;BME280;3632;42.724;23.298;2023-12-20T01:11:34;95467.94;;;-1.38;100.00
7182;BME280;3632;42.724;23.298;2023-12-20T01:14:00;95652.06;;;-0.19;100.00
7182;BME280;3632;42.724;23.298;2023-12-20T01:16:27;95729.88;;;0.04;100.00
7182;BME280;3632;42.724;23.298;2023-12-20T01:18:54;95718.69;;;-0.14;100.00
7182;BME280;3632;42.724;23.298;2023-12-20T01:21:20;95719.22;;;-0.04;100.00
7182;BME280;3632;42.724;23.298;2023-12-20T01:23:48;95713.81;;;0.10;100.00
7182;BME280;3632;42.724;23.298;2023-12-20T01:26:15;95353.09;;;-2.27;100.00
7182;BME280;3632;42.724;23.298;2023-12-20T01:28:42;95538.88;;;-1.12;100.00
7182;BME280;3632;42.724;23.298;2023-12-20T01:31:09;95709.69;;;-0.19;100.00
7182;BME280;3632;42.724;23.298;2023-12-20T01:33:35;95700.91;;;-0.05;100.00
7182;BME280;3632;42.724;23.298;2023-12-20T01:36:03;95641.63;;;-0.60;100.00
7182;BME280;3632;42.724;23.298;2023-12-20T01:38:30;95693.38;;;-0.32;100.00
7182;BME280;3632;42.724;23.298;2023-12-20T01:40:59;95695.44;;;-0.47;100.00
7182;BME280;3632;42.724;23.298;2023-12-20T01:43:25;95679.75;;;-0.52;100.00
7182;BME280;3632;42.724;23.298;2023-12-20T01:45:52;95682.97;;;-0.48;100.00
7182;BME280;3632;42.724;23.298;2023-12-20T01:48:19;95683.88;;;-0.51;100.00
7182;BME280;3632;42.724;23.298;2023-12-20T01:50:47;95680.66;;;-0.54;100.00
7182;BME280;3632;42.724;23.298;2023-12-20T01:53:15;95669.00;;;-0.55;100.00
7182;BME280;3632;42.724;23.298;2023-12-20T01:55:43;95668.16;;;-0.26;100.00
7182;BME280;3632;42.724;23.298;2023-12-20T01:58:12;95666.47;;;-0.26;100.00
7182;BME280;3632;42.724;23.298;2023-12-20T02:00:40;95672.16;;;-0.49;100.00
7182;BME280;3632;42.724;23.298;2023-12-20T02:03:07;95675.00;;;-0.33;100.00
7182;BME280;3632;42.724;23.298;2023-12-20T02:05:35;95664.69;;;-0.22;100.00
7182;BME280;3632;42.724;23.298;2023-12-20T02:08:02;95624.59;;;-0.49;100.00
7182;BME280;3632;42.724;23.298;2023-12-20T02:10:29;95679.25;;;-0.35;100.00
7182;BME280;3632;42.724;23.298;2023-12-20T02:12:56;95531.63;;;-0.92;100.00
7182;BME280;3632;42.724;23.298;2023-12-20T02:15:24;95559.91;;;-0.62;100.00
7182;BME280;3632;42.724;23.298;2023-12-20T02:17:51;95644.50;;;0.09;100.00
7182;BME280;3632;42.724;23.298;2023-12-20T02:20:18;95595.59;;;-0.29;100.00
7182;BME280;3632;42.724;23.298;2023-12-20T02:22:46;95641.66;;;-0.07;100.00
7182;BME280;3632;42.724;23.298;2023-12-20T02:25:13;95644.63;;;0.30;100.00
7182;BME280;3632;42.724;23.298;2023-12-20T02:27:40;95638.31;;;0.20;100.00
7182;BME280;3632;42.724;23.298;2023-12-20T02:30:08;95648.63;;;0.11;100.00
7182;BME280;3632;42.724;23.298;2023-12-20T02:32:35;95523.94;;;-0.33;100.00
7182;BME280;3632;42.724;23.298;2023-12-20T02:35:02;95668.38;;;0.20;100.00
7182;BME280;3632;42.724;23.298;2023-12-20T02:37:28;95629.47;;;0.09;100.00
7182;BME280;3632;42.724;23.298;2023-12-20T02:39:56;95596.78;;;-0.13;100.00
7182;BME280;3632;42.724;23.298;2023-12-20T02:42:23;95624.91;;;-0.05;100.00
7182;BME280;3632;42.724;23.298;2023-12-20T02:44:50;95622.47;;;-0.08;100.00
7182;BME280;3632;42.724;23.298;2023-12-20T02:47:16;95613.00;;;0.02;100.00
7182;BME280;3632;42.724;23.298;2023-12-20T02:49:43;95619.25;;;-0.12;100.00
7182;BME280;3632;42.724;23.298;2023-12-20T02:52:10;95614.81;;;-0.04;100.00
7182;BME280;3632;42.724;23.298;2023-12-20T02:54:36;95617.25;;;-0.01;100.00
7182;BME280;3632;42.724;23.298;2023-12-20T02:57:05;95623.25;;;-0.32;100.00
7182;BME280;3632;42.724;23.298;2023-12-20T02:59:31;95615.31;;;-0.19;100.00
7182;BME280;3632;42.724;23.298;2023-12-20T03:01:58;95629.25;;;-0.10;100.00
7182;BME280;3632;42.724;23.298;2023-12-20T03:04:25;95596.22;;;-0.21;100.00
7182;BME280;3632;42.724;23.298;2023-12-20T03:06:51;95597.03;;;-0.49;100.00
7182;BME280;3632;42.724;23.298;2023-12-20T03:09:18;95621.03;;;-0.15;100.00
7182;BME280;3632;42.724;23.298;2023-12-20T03:11:45;95621.03;;;-0.15;100.00
7182;BME280;3632;42.724;23.298;2023-12-20T03:14:13;95615.66;;;-0.03;100.00
7182;BME280;3632;42.724;23.298;2023-12-20T03:16:40;95608.66;;;-0.20;100.00
7182;BME280;3632;42.724;23.298;2023-12-20T03:19:06;95670.88;;;-0.06;100.00
7182;BME280;3632;42.724;23.298;2023-12-20T03:21:33;95613.94;;;-0.01;100.00
7182;BME280;3632;42.724;23.298;2023-12-20T03:23:59;95601.25;;;0.04;100.00
7182;BME280;3632;42.724;23.298;2023-12-20T03:26:26;95601.81;;;0.12;100.00
7182;BME280;3632;42.724;23.298;2023-12-20T03:28:53;95595.88;;;0.14;100.00
7182;BME280;3632;42.724;23.298;2023-12-20T03:31:21;95601.56;;;0.19;100.00
7182;BME280;3632;42.724;23.298;2023-12-20T03:33:48;95591.72;;;0.13;100.00
7182;BME280;3632;42.724;23.298;2023-12-20T03:36:16;94936.69;;;-3.71;100.00
7182;BME280;3632;42.724;23.298;2023-12-20T03:38:43;95593.59;;;0.08;100.00
7182;BME280;3632;42.724;23.298;2023-12-20T03:41:10;95606.13;;;0.08;100.00
7182;BME280;3632;42.724;23.298;2023-12-20T03:43:36;95535.63;;;-0.86;100.00
7182;BME280;3632;42.724;23.298;2023-12-20T03:46:03;95508.72;;;-0.80;100.00
7182;BME280;3632;42.724;23.298;2023-12-20T03:48:31;95587.47;;;-0.10;100.00
7182;BME280;3632;42.724;23.298;2023-12-20T03:50:58;95585.25;;;-0.19;100.00
7182;BME280;3632;42.724;23.298;2023-12-20T03:53:25;95594.47;;;-0.19;100.00
7182;BME280;3632;42.724;23.298;2023-12-20T03:55:51;95482.66;;;-0.73;100.00
7182;BME280;3632;42.724;23.298;2023-12-20T03:58:18;95588.53;;;-0.17;100.00
7182;BME280;3632;42.724;23.298;2023-12-20T04:00:45;95592.41;;;-0.08;100.00
7182;BME280;3632;42.724;23.298;2023-12-20T04:03:11;95553.38;;;-0.40;100.00
7182;BME280;3632;42.724;23.298;2023-12-20T04:05:41;95576.94;;;-0.19;100.00
7182;BME280;3632;42.724;23.298;2023-12-20T04:08:08;95552.09;;;-0.52;100.00
7182;BME280;3632;42.724;23.298;2023-12-20T04:10:35;95510.66;;;-0.62;100.00
7182;BME280;3632;42.724;23.298;2023-12-20T04:13:03;95576.94;;;-0.19;100.00
7182;BME280;3632;42.724;23.298;2023-12-20T04:15:29;95570.13;;;-0.16;100.00
7182;BME280;3632;42.724;23.298;2023-12-20T04:17:56;95566.72;;;-0.39;100.00
7182;BME280;3632;42.724;23.298;2023-12-20T04:20:23;95519.56;;;-0.53;100.00
7182;BME280;3632;42.724;23.298;2023-12-20T04:22:51;95559.56;;;-0.25;100.00
7182;BME280;3632;42.724;23.298;2023-12-20T04:25:17;95424.72;;;-0.87;100.00
7182;BME280;3632;42.724;23.298;2023-12-20T04:27:44;95557.16;;;-0.02;100.00
7182;BME280;3632;42.724;23.298;2023-12-20T04:30:11;95412.41;;;-0.93;100.00
7182;BME280;3632;42.724;23.298;2023-12-20T04:32:38;95555.25;;;0.05;100.00
7182;BME280;3632;42.724;23.298;2023-12-20T04:35:05;95441.78;;;-1.54;100.00
7182;BME280;3632;42.724;23.298;2023-12-20T04:37:32;95560.69;;;-0.08;100.00
7182;BME280;3632;42.724;23.298;2023-12-20T04:40:00;95558.63;;;-0.48;100.00
7182;BME280;3632;42.724;23.298;2023-12-20T04:42:27;95562.63;;;-0.42;100.00
7182;BME280;3632;42.724;23.298;2023-12-20T04:44:54;95421.66;;;-1.23;100.00
7182;BME280;3632;42.724;23.298;2023-12-20T04:47:20;95396.31;;;-1.66;100.00
7182;BME280;3632;42.724;23.298;2023-12-20T04:49:47;95545.53;;;-0.56;100.00
7182;BME280;3632;42.724;23.298;2023-12-20T04:52:14;95464.66;;;-0.84;100.00
7182;BME280;3632;42.724;23.298;2023-12-20T04:54:41;95544.44;;;-0.47;100.00
7182;BME280;3632;42.724;23.298;2023-12-20T04:57:09;95545.84;;;-0.38;100.00
7182;BME280;3632;42.724;23.298;2023-12-20T04:59:36;95547.06;;;-0.25;100.00
7182;BME280;3632;42.724;23.298;2023-12-20T05:02:03;95537.94;;;-0.26;100.00
7182;BME280;3632;42.724;23.298;2023-12-20T05:04:29;95333.19;;;-1.19;100.00
7182;BME280;3632;42.724;23.298;2023-12-20T05:06:56;95535.47;;;-0.28;100.00
7182;BME280;3632;42.724;23.298;2023-12-20T05:09:23;95535.59;;;0.19;100.00
7182;BME280;3632;42.724;23.298;2023-12-20T05:11:49;95526.75;;;0.33;100.00
7182;BME280;3632;42.724;23.298;2023-12-20T05:14:17;95517.63;;;0.31;100.00
7182;BME280;3632;42.724;23.298;2023-12-20T05:16:44;95530.63;;;0.17;100.00
7182;BME280;3632;42.724;23.298;2023-12-20T05:19:11;95538.41;;;0.58;100.00
7182;BME280;3632;42.724;23.298;2023-12-20T05:21:38;95524.41;;;0.75;100.00
7182;BME280;3632;42.724;23.298;2023-12-20T05:24:05;95530.88;;;0.81;100.00
7182;BME280;3632;42.724;23.298;2023-12-20T05:26:31;95508.84;;;0.89;100.00
7182;BME280;3632;42.724;23.298;2023-12-20T05:28:58;95517.09;;;0.93;100.00
7182;BME280;3632;42.724;23.298;2023-12-20T05:31:26;95472.13;;;0.41;100.00
7182;BME280;3632;42.724;23.298;2023-12-20T05:33:53;95514.53;;;0.71;100.00
7182;BME280;3632;42.724;23.298;2023-12-20T05:36:19;95506.03;;;0.28;100.00
7182;BME280;3632;42.724;23.298;2023-12-20T05:38:46;95515.00;;;-0.14;100.00
7182;BME280;3632;42.724;23.298;2023-12-20T05:41:13;95512.06;;;-0.02;100.00
7182;BME280;3632;42.724;23.298;2023-12-20T05:43:40;95507.59;;;0.31;100.00
7182;BME280;3632;42.724;23.298;2023-12-20T05:46:07;95501.31;;;0.19;100.00
7182;BME280;3632;42.724;23.298;2023-12-20T05:48:35;95505.63;;;-0.09;100.00
7182;BME280;3632;42.724;23.298;2023-12-20T05:51:02;95420.03;;;-0.98;100.00
7182;BME280;3632;42.724;23.298;2023-12-20T05:53:28;95495.13;;;-0.20;100.00
7182;BME280;3632;42.724;23.298;2023-12-20T05:55:55;95522.34;;;-0.34;100.00
7182;BME280;3632;42.724;23.298;2023-12-20T05:58:22;95500.38;;;-0.26;100.00
7182;BME280;3632;42.724;23.298;2023-12-20T06:00:48;95498.31;;;-0.15;100.00
7182;BME280;3632;42.724;23.298;2023-12-20T06:03:15;95493.03;;;0.17;100.00
7182;BME280;3632;42.724;23.298;2023-12-20T06:05:43;95485.41;;;0.43;100.00
7182;BME280;3632;42.724;23.298;2023-12-20T06:08:10;95484.72;;;0.63;100.00
7182;BME280;3632;42.724;23.298;2023-12-20T06:10:37;95486.25;;;0.67;100.00
7182;BME280;3632;42.724;23.298;2023-12-20T06:13:03;95362.41;;;0.03;100.00
7182;BME280;3632;42.724;23.298;2023-12-20T06:15:32;95495.31;;;0.93;100.00
7182;BME280;3632;42.724;23.298;2023-12-20T06:17:58;95425.41;;;0.62;100.00
7182;BME280;3632;42.724;23.298;2023-12-20T06:20:25;95490.53;;;1.09;100.00
7182;BME280;3632;42.724;23.298;2023-12-20T06:22:53;95489.50;;;1.14;100.00
7182;BME280;3632;42.724;23.298;2023-12-20T06:25:20;95485.03;;;1.21;100.00
7182;BME280;3632;42.724;23.298;2023-12-20T06:27:46;95489.03;;;1.26;100.00
7182;BME280;3632;42.724;23.298;2023-12-20T06:30:13;95443.16;;;1.01;100.00
7182;BME280;3632;42.724;23.298;2023-12-20T06:32:40;95494.72;;;1.08;100.00
7182;BME280;3632;42.724;23.298;2023-12-20T06:35:09;95289.50;;;0.09;100.00
7182;BME280;3632;42.724;23.298;2023-12-20T06:37:35;95492.97;;;1.32;100.00
7182;BME280;3632;42.724;23.298;2023-12-20T06:40:05;95478.50;;;1.17;100.00
7182;BME280;3632;42.724;23.298;2023-12-20T06:42:32;95480.50;;;1.30;100.00
7182;BME280;3632;42.724;23.298;2023-12-20T06:44:59;95477.22;;;0.38;100.00
7182;BME280;3632;42.724;23.298;2023-12-20T06:47:25;95489.38;;;-0.22;100.00
7182;BME280;3632;42.724;23.298;2023-12-20T06:49:52;95486.44;;;-0.60;100.00
7182;BME280;3632;42.724;23.298;2023-12-20T06:52:19;95048.41;;;-3.29;100.00
7182;BME280;3632;42.724;23.298;2023-12-20T06:54:46;95474.28;;;-0.72;100.00
7182;BME280;3632;42.724;23.298;2023-12-20T06:57:14;95470.06;;;-0.70;100.00
7182;BME280;3632;42.724;23.298;2023-12-20T06:59:41;95464.03;;;-0.90;100.00
7182;BME280;3632;42.724;23.298;2023-12-20T07:02:08;95473.75;;;-0.81;100.00
7182;BME280;3632;42.724;23.298;2023-12-20T07:04:39;95474.00;;;-1.17;100.00
7182;BME280;3632;42.724;23.298;2023-12-20T07:07:05;95466.34;;;-1.11;100.00
7182;BME280;3632;42.724;23.298;2023-12-20T07:09:32;95409.78;;;-1.70;100.00
7182;BME280;3632;42.724;23.298;2023-12-20T07:11:59;95422.31;;;-1.16;100.00
7182;BME280;3632;42.724;23.298;2023-12-20T07:14:27;95470.31;;;-0.77;100.00
7182;BME280;3632;42.724;23.298;2023-12-20T07:16:54;95465.22;;;-0.76;100.00
7182;BME280;3632;42.724;23.298;2023-12-20T07:19:21;95395.88;;;-1.23;100.00
7182;BME280;3632;42.724;23.298;2023-12-20T07:21:48;95463.53;;;-0.75;100.00
7182;BME280;3632;42.724;23.298;2023-12-20T07:24:15;95460.00;;;-0.68;100.00
7182;BME280;3632;42.724;23.298;2023-12-20T07:26:42;95450.50;;;-0.59;100.00
7182;BME280;3632;42.724;23.298;2023-12-20T07:29:08;95451.44;;;-0.61;100.00
7182;BME280;3632;42.724;23.298;2023-12-20T07:31:36;95392.03;;;-1.07;100.00
7182;BME280;3632;42.724;23.298;2023-12-20T07:34:03;95452.72;;;-0.76;100.00
7182;BME280;3632;42.724;23.298;2023-12-20T07:36:30;95455.06;;;-0.71;100.00
7182;BME280;3632;42.724;23.298;2023-12-20T07:38:57;95448.47;;;-0.72;100.00
7182;BME280;3632;42.724;23.298;2023-12-20T07:41:32;95284.47;;;-1.86;100.00
7182;BME280;3632;42.724;23.298;2023-12-20T07:43:59;95415.22;;;-1.02;100.00
7182;BME280;3632;42.724;23.298;2023-12-20T07:46:26;95366.03;;;-1.29;100.00
7182;BME280;3632;42.724;23.298;2023-12-20T07:48:54;95248.59;;;-2.10;100.00
7182;BME280;3632;42.724;23.298;2023-12-20T07:51:21;95445.94;;;-0.99;100.00
7182;BME280;3632;42.724;23.298;2023-12-20T07:53:47;95443.31;;;-0.94;100.00
7182;BME280;3632;42.724;23.298;2023-12-20T07:56:14;95444.69;;;-0.85;100.00
7182;BME280;3632;42.724;23.298;2023-12-20T07:58:41;95439.06;;;-0.92;100.00
7182;BME280;3632;42.724;23.298;2023-12-20T08:01:08;95442.34;;;-0.90;100.00
7182;BME280;3632;42.724;23.298;2023-12-20T08:03:35;95444.78;;;-0.88;100.00
7182;BME280;3632;42.724;23.298;2023-12-20T08:06:04;95360.25;;;-1.58;100.00
7182;BME280;3632;42.724;23.298;2023-12-20T08:08:31;95371.34;;;-1.12;100.00
7182;BME280;3632;42.724;23.298;2023-12-20T08:10:57;95412.72;;;-0.26;100.00
7182;BME280;3632;42.724;23.298;2023-12-20T08:13:26;95296.75;;;-0.52;100.00
7182;BME280;3632;42.724;23.298;2023-12-20T08:15:53;95435.19;;;0.00;100.00
7182;BME280;3632;42.724;23.298;2023-12-20T08:18:21;95427.47;;;0.51;100.00
7182;BME280;3632;42.724;23.298;2023-12-20T08:20:48;95414.25;;;0.91;100.00
7182;BME280;3632;42.724;23.298;2023-12-20T08:23:16;95412.19;;;1.22;100.00
7182;BME280;3632;42.724;23.298;2023-12-20T08:25:43;95417.19;;;1.44;100.00
7182;BME280;3632;42.724;23.298;2023-12-20T08:28:11;95422.69;;;1.72;100.00
7182;BME280;3632;42.724;23.298;2023-12-20T08:30:38;95417.84;;;1.88;100.00
7182;BME280;3632;42.724;23.298;2023-12-20T08:33:05;95364.09;;;1.72;100.00
7182;BME280;3632;42.724;23.298;2023-12-20T08:35:37;95406.19;;;2.06;100.00
7182;BME280;3632;42.724;23.298;2023-12-20T08:38:04;95398.63;;;1.67;100.00
7182;BME280;3632;42.724;23.298;2023-12-20T08:40:32;95392.75;;;2.07;100.00
7182;BME280;3632;42.724;23.298;2023-12-20T08:42:59;95349.53;;;1.99;100.00
7182;BME280;3632;42.724;23.298;2023-12-20T08:45:26;95410.78;;;1.96;100.00
7182;BME280;3632;42.724;23.298;2023-12-20T08:47:52;95382.09;;;2.20;100.00
7182;BME280;3632;42.724;23.298;2023-12-20T08:50:19;95318.09;;;1.90;100.00
7182;BME280;3632;42.724;23.298;2023-12-20T08:52:46;95311.81;;;2.17;98.36
7182;BME280;3632;42.724;23.298;2023-12-20T08:55:12;95371.88;;;2.61;97.23
7182;BME280;3632;42.724;23.298;2023-12-20T08:57:43;95372.75;;;2.60;96.80
7182;BME280;3632;42.724;23.298;2023-12-20T09:00:11;95364.41;;;2.41;97.06
7182;BME280;3632;42.724;23.298;2023-12-20T09:02:38;95365.22;;;2.22;97.54
7182;BME280;3632;42.724;23.298;2023-12-20T09:05:05;95359.56;;;1.80;100.00
7182;BME280;3632;42.724;23.298;2023-12-20T09:07:32;95227.94;;;1.45;100.00
7182;BME280;3632;42.724;23.298;2023-12-20T09:09:58;95335.28;;;1.99;100.00
7182;BME280;3632;42.724;23.298;2023-12-20T09:12:25;95304.69;;;1.90;100.00
7182;BME280;3632;42.724;23.298;2023-12-20T09:14:54;95330.03;;;2.41;100.00
7182;BME280;3632;42.724;23.298;2023-12-20T09:17:20;95290.56;;;2.06;100.00
7182;BME280;3632;42.724;23.298;2023-12-20T09:19:48;95209.44;;;1.48;100.00
7182;BME280;3632;42.724;23.298;2023-12-20T09:22:15;95311.63;;;2.03;100.00
7182;BME280;3632;42.724;23.298;2023-12-20T09:24:43;95296.72;;;2.17;100.00
7182;BME280;3632;42.724;23.298;2023-12-20T09:27:11;95127.31;;;1.31;100.00
7182;BME280;3632;42.724;23.298;2023-12-20T09:29:41;94958.75;;;0.48;100.00
7182;BME280;3632;42.724;23.298;2023-12-20T09:32:09;95187.28;;;1.74;100.00
7182;BME280;3632;42.724;23.298;2023-12-20T09:34:36;95309.53;;;1.94;100.00
7182;BME280;3632;42.724;23.298;2023-12-20T09:37:03;95266.88;;;2.64;100.00
7182;BME280;3632;42.724;23.298;2023-12-20T09:39:31;95264.56;;;2.60;100.00
7182;BME280;3632;42.724;23.298;2023-12-20T09:42:01;95266.78;;;2.49;100.00
7182;BME280;3632;42.724;23.298;2023-12-20T09:44:28;95259.84;;;2.54;100.00
7182;BME280;3632;42.724;23.298;2023-12-20T09:46:56;95245.50;;;2.20;100.00
7182;BME280;3632;42.724;23.298;2023-12-20T09:49:25;95255.59;;;2.37;100.00
7182;BME280;3632;42.724;23.298;2023-12-20T09:51:54;95192.19;;;2.30;100.00
7182;BME280;3632;42.724;23.298;2023-12-20T09:54:22;95242.16;;;2.90;100.00
7182;BME280;3632;42.724;23.298;2023-12-20T09:56:49;95233.47;;;3.12;100.00
7182;BME280;3632;42.724;23.298;2023-12-20T09:59:16;95180.47;;;2.98;100.00
7182;BME280;3632;42.724;23.298;2023-12-20T10:01:43;95240.78;;;3.34;100.00
7182;BME280;3632;42.724;23.298;2023-12-20T10:04:11;95231.19;;;3.41;97.73
7182;BME280;3632;42.724;23.298;2023-12-20T10:06:41;95224.00;;;3.17;100.00
7182;BME280;3632;42.724;23.298;2023-12-20T10:09:08;95210.09;;;4.81;100.00
7182;BME280;3632;42.724;23.298;2023-12-20T10:11:35;95171.00;;;3.03;100.00
7182;BME280;3632;42.724;23.298;2023-12-20T10:14:04;95211.72;;;3.91;100.00
7182;BME280;3632;42.724;23.298;2023-12-20T10:16:31;95205.63;;;3.95;100.00
7182;BME280;3632;42.724;23.298;2023-12-20T10:18:59;95133.97;;;3.05;98.99
7182;BME280;3632;42.724;23.298;2023-12-20T10:21:26;95207.66;;;3.89;97.90
7182;BME280;3632;42.724;23.298;2023-12-20T10:23:55;95196.53;;;3.93;95.78
7182;BME280;3632;42.724;23.298;2023-12-20T10:26:24;95113.78;;;3.99;93.57
7182;BME280;3632;42.724;23.298;2023-12-20T10:28:53;95182.50;;;4.92;91.70
7182;BME280;3632;42.724;23.298;2023-12-20T10:31:27;95180.84;;;5.90;88.11
7182;BME280;3632;42.724;23.298;2023-12-20T10:33:56;95166.06;;;7.15;82.53
7182;BME280;3632;42.724;23.298;2023-12-20T10:36:24;95160.50;;;8.19;75.31
7182;BME280;3632;42.724;23.298;2023-12-20T10:38:53;95107.81;;;8.58;71.79
7182;BME280;3632;42.724;23.298;2023-12-20T10:41:25;95147.75;;;9.46;69.66
7182;BME280;3632;42.724;23.298;2023-12-20T10:43:55;95138.66;;;10.20;63.54
7182;BME280;3632;42.724;23.298;2023-12-20T10:46:22;95136.66;;;9.70;64.71
7182;BME280;3632;42.724;23.298;2023-12-20T10:48:53;95121.13;;;10.59;62.45
7182;BME280;3632;42.724;23.298;2023-12-20T10:51:21;95105.91;;;12.28;57.55
7182;BME280;3632;42.724;23.298;2023-12-20T10:53:48;95059.91;;;12.47;54.60
7182;BME280;3632;42.724;23.298;2023-12-20T10:56:17;95107.38;;;13.62;52.47
7182;BME280;3632;42.724;23.298;2023-12-20T10:58:49;94997.69;;;13.93;49.92
7182;BME280;3632;42.724;23.298;2023-12-20T11:01:17;95009.78;;;15.63;46.45
7182;BME280;3632;42.724;23.298;2023-12-20T11:03:48;95106.31;;;16.24;45.83
7182;BME280;3632;42.724;23.298;2023-12-20T11:06:33;95001.66;;;15.34;45.56
7182;BME280;3632;42.724;23.298;2023-12-20T11:09:08;95082.31;;;15.91;46.98
7182;BME280;3632;42.724;23.298;2023-12-20T11:11:48;95064.25;;;15.41;46.88
7182;BME280;3632;42.724;23.298;2023-12-20T11:14:23;95044.22;;;15.94;45.24
7182;BME280;3632;42.724;23.298;2023-12-20T11:16:50;95059.69;;;16.43;45.06
7182;BME280;3632;42.724;23.298;2023-12-20T11:19:17;95016.59;;;16.13;44.36
7182;BME280;3632;42.724;23.298;2023-12-20T11:21:46;95039.66;;;13.74;47.78
7182;BME280;3632;42.724;23.298;2023-12-20T11:24:13;95050.97;;;12.61;51.51
7182;BME280;3632;42.724;23.298;2023-12-20T11:26:47;95045.41;;;10.49;55.99
7182;BME280;3632;42.724;23.298;2023-12-20T11:29:34;95039.06;;;9.91;59.08
7182;BME280;3632;42.724;23.298;2023-12-20T11:32:02;95038.88;;;10.36;58.00
7182;BME280;3632;42.724;23.298;2023-12-20T11:34:32;95044.72;;;8.87;63.12
7182;BME280;3632;42.724;23.298;2023-12-20T11:37:00;94937.06;;;7.75;65.22
7182;BME280;3632;42.724;23.298;2023-12-20T11:39:28;95036.13;;;7.37;68.78
7182;BME280;3632;42.724;23.298;2023-12-20T11:41:56;95032.66;;;7.02;72.06
7182;BME280;3632;42.724;23.298;2023-12-20T11:44:25;94964.59;;;6.84;73.19
7182;BME280;3632;42.724;23.298;2023-12-20T11:46:54;95018.97;;;8.23;70.44
7182;BME280;3632;42.724;23.298;2023-12-20T11:49:25;95007.03;;;7.77;71.12
7182;BME280;3632;42.724;23.298;2023-12-20T11:51:54;95001.66;;;7.58;72.74
7182;BME280;3632;42.724;23.298;2023-12-20T11:54:21;95018.22;;;9.00;69.32
7182;BME280;3632;42.724;23.298;2023-12-20T11:56:49;94899.72;;;8.88;65.64
7182;BME280;3632;42.724;23.298;2023-12-20T11:59:16;94941.44;;;8.63;66.50
7182;BME280;3632;42.724;23.298;2023-12-20T12:01:48;94977.19;;;9.05;67.09
7182;BME280;3632;42.724;23.298;2023-12-20T12:04:17;94864.91;;;9.32;61.88
7182;BME280;3632;42.724;23.298;2023-12-20T12:06:44;94963.22;;;10.87;60.27
7182;BME280;3632;42.724;23.298;2023-12-20T12:09:11;94937.13;;;9.40;62.82
7182;BME280;3632;42.724;23.298;2023-12-20T12:11:38;94964.69;;;10.08;63.44
7182;BME280;3632;42.724;23.298;2023-12-20T12:14:07;94948.06;;;11.64;57.96
7182;BME280;3632;42.724;23.298;2023-12-20T12:16:34;94916.84;;;13.55;52.41
7182;BME280;3632;42.724;23.298;2023-12-20T12:19:01;94925.06;;;14.71;51.20
7182;BME280;3632;42.724;23.298;2023-12-20T12:21:30;94925.19;;;14.18;50.46
7182;BME280;3632;42.724;23.298;2023-12-20T12:24:08;94915.34;;;13.88;50.74
7182;BME280;3632;42.724;23.298;2023-12-20T12:26:35;94806.31;;;13.59;49.39
7182;BME280;3632;42.724;23.298;2023-12-20T12:29:03;94920.97;;;14.35;49.52
7182;BME280;3632;42.724;23.298;2023-12-20T12:31:30;94895.31;;;12.30;52.63
7182;BME280;3632;42.724;23.298;2023-12-20T12:33:57;94767.84;;;11.34;53.30
7182;BME280;3632;42.724;23.298;2023-12-20T12:36:23;94936.19;;;12.30;54.34
7182;BME280;3632;42.724;23.298;2023-12-20T12:38:52;94885.09;;;11.74;54.38
7182;BME280;3632;42.724;23.298;2023-12-20T12:41:19;94858.28;;;10.82;56.37
7182;BME280;3632;42.724;23.298;2023-12-20T12:43:46;94869.31;;;10.92;56.44
7182;BME280;3632;42.724;23.298;2023-12-20T12:46:12;94929.66;;;11.80;54.33
7182;BME280;3632;42.724;23.298;2023-12-20T12:48:39;94920.13;;;11.43;56.08
7182;BME280;3632;42.724;23.298;2023-12-20T12:51:06;94926.03;;;11.54;56.36
7182;BME280;3632;42.724;23.298;2023-12-20T12:53:37;94920.53;;;10.80;57.12
7182;BME280;3632;42.724;23.298;2023-12-20T12:56:06;94909.72;;;10.97;58.17
7182;BME280;3632;42.724;23.298;2023-12-20T12:58:33;94784.16;;;9.03;60.88
7182;BME280;3632;42.724;23.298;2023-12-20T13:01:00;94738.63;;;8.80;60.79
7182;BME280;3632;42.724;23.298;2023-12-20T13:03:27;94917.72;;;9.39;63.29
7182;BME280;3632;42.724;23.298;2023-12-20T13:05:54;94917.91;;;7.36;71.78
7182;BME280;3632;42.724;23.298;2023-12-20T13:08:21;94913.47;;;7.27;73.56